createdAt,value
2019-01-27T00:02:16.444Z,52.08
2019-01-27T00:04:47.233Z,46.50
2019-01-27T00:07:17.608Z,54.08
2019-01-27T00:09:48.488Z,46.15
2019-01-27T00:12:19.111Z,50.23
2019-01-27T00:14:49.485Z,46.53
2019-01-27T00:17:19.838Z,49.53
2019-01-27T00:19:50.313Z,44.25
2019-01-27T00:22:20.702Z,47.48
2019-01-27T00:24:51.096Z,46.42
2019-01-27T00:27:21.883Z,49.42
2019-01-27T00:29:52.661Z,47.67
2019-01-27T00:32:23.536Z,57.13
2019-01-27T00:34:54.080Z,56.63
2019-01-27T00:37:25.532Z,59.50
2019-01-27T00:39:56.238Z,51.70
2019-01-27T00:42:26.717Z,52.90
2019-01-27T00:44:57.318Z,45.75
2019-01-27T00:47:27.819Z,58.02
2019-01-27T00:49:58.662Z,45.98
2019-01-27T00:52:29.222Z,48.63
2019-01-27T00:54:59.612Z,50.20
2019-01-27T00:57:30.407Z,58.60
2019-01-27T01:00:01.891Z,51.00
2019-01-27T01:02:32.273Z,54.10
2019-01-27T01:05:02.644Z,50.48
2019-01-27T01:07:34.558Z,49.93
2019-01-27T01:10:06.532Z,51.37
2019-01-27T01:12:36.874Z,47.27
2019-01-27T01:15:09.661Z,49.42
2019-01-27T01:17:40.601Z,52.10
2019-01-27T01:20:13.774Z,52.08
2019-01-27T01:22:44.423Z,49.55
2019-01-27T01:25:17.440Z,46.63
2019-01-27T01:27:47.788Z,53.45
2019-01-27T01:30:22.085Z,52.65
2019-01-27T01:32:52.434Z,49.67
2019-01-27T01:35:22.783Z,49.15
2019-01-27T01:37:53.158Z,49.05
2019-01-27T01:40:23.659Z,50.28
2019-01-27T01:42:54.033Z,45.40
2019-01-27T01:45:33.976Z,46.75
2019-01-27T01:48:04.760Z,51.58
2019-01-27T01:50:39.063Z,50.63
2019-01-27T01:53:09.443Z,53.13
2019-01-27T01:55:39.789Z,48.60
2019-01-27T01:58:11.234Z,54.67
2019-01-27T02:00:42.140Z,51.45
2019-01-27T02:03:12.467Z,50.80
2019-01-27T02:05:42.850Z,46.42
2019-01-27T02:08:13.541Z,50.12
2019-01-27T02:10:44.299Z,62.30
2019-01-27T02:13:14.648Z,61.10
2019-01-27T02:16:10.179Z,58.55
2019-01-27T02:18:41.390Z,61.10
2019-01-27T02:21:11.795Z,57.53
2019-01-27T02:23:42.111Z,60.08
2019-01-27T02:26:12.925Z,56.58
2019-01-27T02:28:43.209Z,67.90
2019-01-27T02:31:17.528Z,65.10
2019-01-27T02:33:47.886Z,64.20
2019-01-27T02:36:18.228Z,63.13
2019-01-27T02:38:48.584Z,62.60
2019-01-27T02:41:19.999Z,54.70
2019-01-27T02:43:50.351Z,50.55
2019-01-27T02:46:20.704Z,63.50
2019-01-27T02:48:51.099Z,67.67
2019-01-27T02:51:21.494Z,58.95
2019-01-27T02:53:51.857Z,67.08
2019-01-27T02:56:22.226Z,63.70
2019-01-27T02:58:52.573Z,66.20
2019-01-27T03:01:23.533Z,62.58
2019-01-27T03:03:53.920Z,72.92
2019-01-27T03:06:42.405Z,64.00
2019-01-27T03:09:18.753Z,56.77
2019-01-27T03:11:50.039Z,63.00
2019-01-27T03:14:21.389Z,63.63
2019-01-27T03:16:53.479Z,55.17
2019-01-27T03:19:24.364Z,66.10
2019-01-27T03:21:54.712Z,60.15
2019-01-27T03:24:25.042Z,49.20
2019-01-27T03:26:55.409Z,54.48
2019-01-27T03:29:25.759Z,60.88
2019-01-27T03:31:56.774Z,52.43
2019-01-27T03:34:27.102Z,56.75
2019-01-27T03:36:57.555Z,61.60
2019-01-27T03:39:27.928Z,56.23
2019-01-27T03:41:58.240Z,58.20
2019-01-27T03:44:28.593Z,60.28
2019-01-27T03:46:58.987Z,63.63
2019-01-27T03:49:29.283Z,48.25
2019-01-27T03:52:00.228Z,45.83
2019-01-27T03:54:30.554Z,64.85
2019-01-27T03:57:00.962Z,52.40
2019-01-27T03:59:31.320Z,50.95
2019-01-27T04:02:02.125Z,58.92
2019-01-27T04:04:32.532Z,52.10
2019-01-27T04:07:02.796Z,57.05
2019-01-27T04:09:33.109Z,59.08
2019-01-27T04:12:03.464Z,58.73
2019-01-27T04:14:34.248Z,51.53
2019-01-27T04:17:04.624Z,54.98
2019-01-27T04:19:34.953Z,57.35
2019-01-27T04:22:06.400Z,48.33
2019-01-27T04:24:36.777Z,43.78
2019-01-27T04:27:07.130Z,53.65
2019-01-27T04:29:37.524Z,47.50
2019-01-27T04:32:07.882Z,54.50
2019-01-27T04:34:38.571Z,68.02
2019-01-27T04:37:08.897Z,57.70
2019-01-27T04:39:39.212Z,52.17
2019-01-27T04:42:09.546Z,60.45
2019-01-27T04:44:39.875Z,61.88
2019-01-27T04:47:10.354Z,55.23
2019-01-27T04:49:40.664Z,53.35
2019-01-27T04:52:11.045Z,52.60
2019-01-27T04:54:41.378Z,50.03
2019-01-27T04:57:11.809Z,51.83
2019-01-27T04:59:42.192Z,47.08
2019-01-27T05:02:13.111Z,53.60
2019-01-27T05:04:43.783Z,53.83
2019-01-27T05:07:14.184Z,49.83
2019-01-27T05:09:44.558Z,54.13
2019-01-27T05:12:15.128Z,54.98
2019-01-27T05:14:45.494Z,46.23
2019-01-27T05:17:15.885Z,59.13
2019-01-27T05:19:46.272Z,50.55
2019-01-27T05:22:16.602Z,54.23
2019-01-27T05:24:47.278Z,51.75
2019-01-27T05:27:17.960Z,47.58
2019-01-27T05:29:48.310Z,49.25
2019-01-27T05:32:18.667Z,55.92
2019-01-27T05:34:49.006Z,54.40
2019-01-27T05:37:19.349Z,44.77
2019-01-27T05:39:49.761Z,54.00
2019-01-27T05:42:20.086Z,51.53
2019-01-27T05:44:50.450Z,47.83
2019-01-27T05:47:20.782Z,48.02
2019-01-27T05:49:51.142Z,48.90
2019-01-27T05:52:21.477Z,48.98
2019-01-27T05:54:51.797Z,53.20
2019-01-27T05:57:22.121Z,46.40
2019-01-27T05:59:52.470Z,51.92
2019-01-27T06:02:23.968Z,47.03
2019-01-27T06:04:54.344Z,57.25
2019-01-27T06:07:24.697Z,50.60
2019-01-27T06:09:55.167Z,49.50
2019-01-27T06:12:25.471Z,52.33
2019-01-27T06:14:55.836Z,54.45
2019-01-27T06:17:26.552Z,48.25
2019-01-27T06:19:57.304Z,55.92
2019-01-27T06:22:27.650Z,55.05
2019-01-27T06:24:58.075Z,57.08
2019-01-27T06:27:28.704Z,60.03
2019-01-27T06:29:59.442Z,51.65
2019-01-27T06:32:48.948Z,54.65
2019-01-27T06:35:19.731Z,51.75
2019-01-27T06:37:50.159Z,56.55
2019-01-27T06:40:20.516Z,62.65
2019-01-27T06:42:50.888Z,62.90
2019-01-27T06:45:21.186Z,54.67
2019-01-27T06:47:52.602Z,57.25
2019-01-27T06:50:24.054Z,62.78
2019-01-27T06:52:54.452Z,59.30
2019-01-27T06:55:24.974Z,56.55
2019-01-27T06:57:55.330Z,62.05
2019-01-27T07:00:57.274Z,59.50
2019-01-27T07:03:32.129Z,58.52
2019-01-27T07:06:25.814Z,57.20
2019-01-27T07:09:13.668Z,61.65
2019-01-27T07:12:18.006Z,63.87
2019-01-27T07:14:59.630Z,67.30
2019-01-27T07:17:51.680Z,70.92
2019-01-27T07:20:57.934Z,76.40
2019-01-27T07:23:42.722Z,69.07
2019-01-27T07:26:31.020Z,70.45
2019-01-27T07:29:17.246Z,74.50
2019-01-27T07:32:08.751Z,73.97
2019-01-27T07:35:01.202Z,58.68
2019-01-27T07:37:50.479Z,69.60
2019-01-27T07:40:48.660Z,67.12
2019-01-27T07:43:37.060Z,63.08
2019-01-27T07:46:20.946Z,83.58
2019-01-27T07:49:19.812Z,69.90
2019-01-27T07:52:18.005Z,77.80
2019-01-27T07:55:13.396Z,71.87
2019-01-27T07:58:00.242Z,78.10
2019-01-27T08:00:47.383Z,76.97
2019-01-27T08:03:36.680Z,76.05
2019-01-27T08:06:25.988Z,79.22
2019-01-27T08:09:18.440Z,76.35
2019-01-27T08:12:10.734Z,72.47
2019-01-27T08:14:55.304Z,75.67
2019-01-27T08:17:43.508Z,65.25
2019-01-27T08:20:38.622Z,70.15
2019-01-27T08:23:23.112Z,68.02
2019-01-27T08:26:18.424Z,73.20
2019-01-27T08:29:09.493Z,65.92
2019-01-27T08:32:05.556Z,60.52
2019-01-27T08:34:49.156Z,77.12
2019-01-27T08:37:29.346Z,75.75
2019-01-27T08:40:21.124Z,68.80
2019-01-27T08:43:00.108Z,77.80
2019-01-27T08:45:53.195Z,77.95
2019-01-27T08:48:23.539Z,67.45
2019-01-27T08:50:54.018Z,74.42
2019-01-27T08:53:24.429Z,73.52
2019-01-27T08:58:30.517Z,75.45
2019-01-27T09:01:10.705Z,73.30
2019-01-27T09:04:00.048Z,68.60
2019-01-27T09:06:40.345Z,84.20
2019-01-27T09:09:28.585Z,70.17
2019-01-27T09:12:17.186Z,72.08
2019-01-27T09:14:58.173Z,75.45
2019-01-27T09:17:46.323Z,67.58
2019-01-27T09:20:35.648Z,65.30
2019-01-27T09:23:23.284Z,78.33
2019-01-27T09:26:18.402Z,83.33
2019-01-27T09:29:07.739Z,70.28
2019-01-27T09:31:46.572Z,80.57
2019-01-27T09:34:34.480Z,75.90
2019-01-27T09:37:39.258Z,71.30
2019-01-27T09:40:21.205Z,82.57
2019-01-27T09:43:09.196Z,78.57
2019-01-27T09:45:57.601Z,79.22
2019-01-27T09:48:45.876Z,72.75
2019-01-27T09:51:31.767Z,77.25
2019-01-27T09:54:21.116Z,70.92
2019-01-27T09:57:13.442Z,83.12
2019-01-27T10:00:08.421Z,81.92
2019-01-27T10:03:09.972Z,83.70
2019-01-27T10:06:14.612Z,83.80
2019-01-27T10:09:03.899Z,82.00
2019-01-27T10:12:03.640Z,80.17
2019-01-27T10:14:42.356Z,81.05
2019-01-27T10:17:22.202Z,74.75
2019-01-27T10:20:02.108Z,82.45
2019-01-27T10:22:51.400Z,88.17
2019-01-27T10:25:36.544Z,83.12
2019-01-27T10:28:28.476Z,78.80
2019-01-27T10:31:27.661Z,79.05
2019-01-27T10:34:19.589Z,79.17
2019-01-27T10:36:57.944Z,68.62
2019-01-27T10:39:47.248Z,81.25
2019-01-27T10:42:52.800Z,69.60
2019-01-27T10:45:40.667Z,74.03
2019-01-27T10:48:40.244Z,79.45
2019-01-27T10:51:35.572Z,78.57
2019-01-27T10:54:37.313Z,74.37
2019-01-27T10:57:15.664Z,77.78
2019-01-27T11:00:10.792Z,67.87
2019-01-27T11:02:51.862Z,65.80
2019-01-27T11:05:42.028Z,69.87
2019-01-27T11:08:40.413Z,76.57
2019-01-27T11:11:36.026Z,72.03
2019-01-27T11:14:18.824Z,71.90
2019-01-27T11:17:08.263Z,74.77
2019-01-27T11:20:03.600Z,61.88
2019-01-27T11:22:59.338Z,70.45
2019-01-27T11:25:51.485Z,64.65
2019-01-27T11:28:43.828Z,64.58
2019-01-27T11:31:31.775Z,66.42
2019-01-27T11:34:33.420Z,68.47
2019-01-27T11:37:38.263Z,69.65
2019-01-27T11:40:46.995Z,60.90
2019-01-27T11:43:39.224Z,70.05
2019-01-27T11:46:28.506Z,60.30
2019-01-27T11:49:11.449Z,65.90
2019-01-27T11:51:46.451Z,60.33
2019-01-27T11:54:16.925Z,59.53
2019-01-27T11:56:47.361Z,67.15
2019-01-27T11:59:17.715Z,66.10
2019-01-27T12:01:48.047Z,65.12
2019-01-27T12:04:18.372Z,61.30
2019-01-27T12:06:49.605Z,54.35
2019-01-27T12:09:19.960Z,55.90
2019-01-27T12:11:50.336Z,56.23
2019-01-27T12:14:21.435Z,56.23
2019-01-27T12:16:51.841Z,56.28
2019-01-27T12:19:22.188Z,55.80
2019-01-27T12:21:52.514Z,59.73
2019-01-27T12:24:23.159Z,58.28
2019-01-27T12:26:53.535Z,53.92
2019-01-27T12:29:23.874Z,54.53
2019-01-27T12:31:55.828Z,51.58
2019-01-27T12:34:26.172Z,51.35
2019-01-27T12:36:56.539Z,44.08
2019-01-27T12:39:26.905Z,59.67
2019-01-27T12:41:57.265Z,53.52
2019-01-27T12:44:28.261Z,48.38
2019-01-27T12:46:58.609Z,50.90
2019-01-27T12:49:28.936Z,51.77
2019-01-27T12:51:59.343Z,52.45
2019-01-27T12:54:30.028Z,45.92
2019-01-27T12:57:00.364Z,46.05
2019-01-27T12:59:30.728Z,49.98
2019-01-27T13:02:01.027Z,51.83
2019-01-27T13:04:31.380Z,45.20
2019-01-27T13:07:01.702Z,53.68
2019-01-27T13:09:32.466Z,40.80
2019-01-27T13:12:02.800Z,51.63
2019-01-27T13:14:33.174Z,47.13
2019-01-27T13:17:07.426Z,41.37
2019-01-27T13:19:35.476Z,51.53
2019-01-27T13:22:06.244Z,44.73
2019-01-27T13:24:36.589Z,44.23
2019-01-27T13:27:07.216Z,46.85
2019-01-27T13:29:37.594Z,46.45
2019-01-27T13:32:07.987Z,42.03
2019-01-27T13:34:39.368Z,40.75
2019-01-27T13:37:09.754Z,35.52
2019-01-27T13:39:40.093Z,43.23
2019-01-27T13:42:10.545Z,37.00
2019-01-27T13:44:41.992Z,36.95
2019-01-27T13:47:12.336Z,45.50
2019-01-27T13:49:43.008Z,40.43
2019-01-27T13:52:13.316Z,41.95
2019-01-27T13:54:44.016Z,44.25
2019-01-27T13:57:15.714Z,35.52
2019-01-27T13:59:46.096Z,36.80
2019-01-27T14:02:16.772Z,35.55
2019-01-27T14:04:48.574Z,31.20
2019-01-27T14:07:19.072Z,33.18
2019-01-27T14:09:49.434Z,37.88
2019-01-27T14:12:20.112Z,36.77
2019-01-27T14:14:50.484Z,35.10
2019-01-27T14:17:20.796Z,38.65
2019-01-27T14:19:51.118Z,34.08
2019-01-27T14:22:21.458Z,33.55
2019-01-27T14:24:51.785Z,35.78
2019-01-27T14:27:22.499Z,34.83
2019-01-27T14:29:52.868Z,34.25
2019-01-27T14:32:23.234Z,40.43
2019-01-27T14:34:53.660Z,34.43
2019-01-27T14:37:24.404Z,35.10
2019-01-27T14:39:54.749Z,33.95
2019-01-27T14:42:25.260Z,34.43
2019-01-27T14:44:57.030Z,38.35
2019-01-27T14:47:27.470Z,34.40
2019-01-27T14:49:57.840Z,33.90
2019-01-27T14:52:28.372Z,32.90
2019-01-27T14:54:58.707Z,35.33
2019-01-27T14:57:29.049Z,30.65
2019-01-27T14:59:59.368Z,37.88
2019-01-27T15:02:29.746Z,33.42
2019-01-27T15:05:00.244Z,29.15
2019-01-27T15:07:30.648Z,27.90
2019-01-27T15:10:00.974Z,36.53
2019-01-27T15:12:31.358Z,37.60
2019-01-27T15:15:02.710Z,37.90
2019-01-27T15:17:33.278Z,41.20
2019-01-27T15:20:05.026Z,35.80
2019-01-27T15:22:35.399Z,37.80
2019-01-27T15:25:06.706Z,36.42
2019-01-27T15:27:37.112Z,30.55
2019-01-27T15:30:11.601Z,30.85
2019-01-27T15:32:42.042Z,29.72
2019-01-27T15:35:12.397Z,34.50
2019-01-27T15:37:42.870Z,38.95
2019-01-27T15:40:13.802Z,30.00
2019-01-27T15:42:44.223Z,36.70
2019-01-27T15:45:18.814Z,37.73
2019-01-27T15:47:49.170Z,31.07
2019-01-27T15:50:21.032Z,29.75
2019-01-27T15:52:51.420Z,34.18
2019-01-27T15:55:22.104Z,30.70
2019-01-27T15:57:53.603Z,33.08
2019-01-27T16:00:25.978Z,29.60
2019-01-27T16:02:56.360Z,32.70
2019-01-27T16:05:26.754Z,31.40
2019-01-27T16:07:59.261Z,35.10
2019-01-27T16:10:29.830Z,40.78
2019-01-27T16:13:00.203Z,28.20
2019-01-27T16:15:32.860Z,29.72
2019-01-27T16:18:03.233Z,31.37
2019-01-27T16:20:33.556Z,32.65
2019-01-27T16:23:15.740Z,29.57
2019-01-27T16:25:46.086Z,26.68
2019-01-27T16:28:16.466Z,29.98
2019-01-27T16:31:06.912Z,31.02
2019-01-27T16:33:45.898Z,27.93
2019-01-27T16:36:16.246Z,28.87
2019-01-27T16:38:46.596Z,28.55
2019-01-27T16:41:16.909Z,30.50
2019-01-27T16:43:47.288Z,30.45
2019-01-27T16:46:17.884Z,30.43
2019-01-27T16:48:48.323Z,32.80
2019-01-27T16:51:18.664Z,31.62
2019-01-27T16:53:49.090Z,36.13
2019-01-27T16:56:19.393Z,34.05
2019-01-27T16:58:49.744Z,31.05
2019-01-27T17:01:20.105Z,26.57
2019-01-27T17:03:50.434Z,31.57
2019-01-27T17:06:20.832Z,32.30
2019-01-27T17:08:51.664Z,28.73
2019-01-27T17:11:22.408Z,26.90
2019-01-27T17:13:55.032Z,26.52
2019-01-27T17:16:25.732Z,27.73
2019-01-27T17:18:56.143Z,25.97
2019-01-27T17:21:26.494Z,26.80
2019-01-27T17:23:56.819Z,24.30
2019-01-27T17:26:27.200Z,21.62
2019-01-27T17:28:57.533Z,26.40
2019-01-27T17:31:27.846Z,24.90
2019-01-27T17:33:58.166Z,24.20
2019-01-27T17:36:28.492Z,27.22
2019-01-27T17:38:58.864Z,22.50
2019-01-27T17:41:29.212Z,29.45
2019-01-27T17:43:59.572Z,29.35
2019-01-27T17:46:29.975Z,22.58
2019-01-27T17:49:00.324Z,22.20
2019-01-27T17:51:30.638Z,22.07
2019-01-27T17:54:03.261Z,20.50
2019-01-27T17:56:33.584Z,24.18
2019-01-27T17:59:41.179Z,21.52
2019-01-27T18:02:32.087Z,27.50
2019-01-27T18:05:21.602Z,26.27
2019-01-27T18:08:10.874Z,26.90
2019-01-27T18:11:02.803Z,24.60
2019-01-27T18:13:39.097Z,23.83
2019-01-27T18:16:13.293Z,22.40
2019-01-27T18:18:44.025Z,21.93
2019-01-27T18:21:14.380Z,21.75
2019-01-27T18:23:45.377Z,21.12
2019-01-27T18:26:17.372Z,24.80
2019-01-27T18:28:51.833Z,22.93
2019-01-27T18:31:19.930Z,26.70
2019-01-27T18:33:50.268Z,24.90
2019-01-27T18:36:20.625Z,23.10
2019-01-27T18:38:51.017Z,23.85
2019-01-27T18:41:21.438Z,26.23
2019-01-27T18:43:51.746Z,25.75
2019-01-27T18:46:22.140Z,20.72
2019-01-27T18:48:54.009Z,20.92
2019-01-27T18:51:24.466Z,23.40
2019-01-27T18:54:26.056Z,22.07
2019-01-27T18:57:15.348Z,21.35
2019-01-27T19:00:03.261Z,18.30
2019-01-27T19:02:55.932Z,25.40
2019-01-27T19:05:48.254Z,25.72
2019-01-27T19:08:35.815Z,22.75
2019-01-27T19:11:24.408Z,23.27
2019-01-27T19:14:10.830Z,25.95
2019-01-27T19:16:54.672Z,23.50
2019-01-27T19:19:48.788Z,25.20
2019-01-27T19:22:37.319Z,20.72
2019-01-27T19:25:18.573Z,20.65
2019-01-27T19:28:02.192Z,24.85
2019-01-27T19:30:37.174Z,27.30
2019-01-27T19:33:20.053Z,21.50
2019-01-27T19:36:08.222Z,18.48
2019-01-27T19:39:03.308Z,18.27
2019-01-27T19:41:54.704Z,24.95
2019-01-27T19:44:42.723Z,21.75
2019-01-27T19:47:28.372Z,15.78
2019-01-27T19:50:10.036Z,20.02
2019-01-27T19:52:59.150Z,20.02
2019-01-27T19:55:49.456Z,21.37
2019-01-27T19:58:37.412Z,27.22
2019-01-27T20:01:33.082Z,20.40
2019-01-27T20:04:15.781Z,21.05
2019-01-27T20:07:23.216Z,25.10
2019-01-27T20:10:11.648Z,19.73
2019-01-27T20:12:59.490Z,24.43
2019-01-27T20:15:53.632Z,17.73
2019-01-27T20:18:48.942Z,21.95
2019-01-27T20:21:27.996Z,23.77
2019-01-27T20:24:08.434Z,22.95
2019-01-27T20:26:56.695Z,21.65
2019-01-27T20:29:45.986Z,24.82
2019-01-27T20:32:33.974Z,21.02
2019-01-27T20:35:24.768Z,24.98
2019-01-27T20:38:03.861Z,21.42
2019-01-27T20:41:08.285Z,19.55
2019-01-27T20:44:00.409Z,23.10
2019-01-27T20:46:43.922Z,21.97
2019-01-27T20:49:48.625Z,21.73
2019-01-27T20:52:38.004Z,19.70
2019-01-27T20:55:28.780Z,19.70
2019-01-27T20:58:20.939Z,23.65
2019-01-27T21:01:10.288Z,18.37
2019-01-27T21:03:57.652Z,23.18
2019-01-27T21:06:48.475Z,19.30
2019-01-27T21:09:38.965Z,25.20
2019-01-27T21:12:37.322Z,21.57
2019-01-27T21:15:44.031Z,25.62
2019-01-27T21:18:18.755Z,27.55
2019-01-27T21:20:53.417Z,20.82
2019-01-27T21:23:21.868Z,26.62
2019-01-27T21:25:52.268Z,24.07
2019-01-27T21:28:22.730Z,29.75
2019-01-27T21:30:53.282Z,26.87
2019-01-27T21:33:23.731Z,22.32
2019-01-27T21:35:54.186Z,23.70
2019-01-27T21:38:24.538Z,23.05
2019-01-27T21:40:54.928Z,23.42
2019-01-27T21:43:25.250Z,23.52
2019-01-27T21:45:55.663Z,22.32
2019-01-27T21:48:26.020Z,24.77
2019-01-27T21:50:56.376Z,22.02
2019-01-27T21:53:26.877Z,20.60
2019-01-27T21:55:58.270Z,24.45
2019-01-27T21:58:28.694Z,25.60
2019-01-27T22:00:59.101Z,24.05
2019-01-27T22:03:29.502Z,23.02
2019-01-27T22:05:59.841Z,29.98
2019-01-27T22:08:30.183Z,23.40
2019-01-27T22:11:00.552Z,25.95
2019-01-27T22:13:30.921Z,24.27
2019-01-27T22:16:01.278Z,21.93
2019-01-27T22:18:31.672Z,24.35
2019-01-27T22:21:02.046Z,21.62
2019-01-27T22:23:32.460Z,28.25
2019-01-27T22:26:02.781Z,27.70
2019-01-27T22:28:33.141Z,21.75
2019-01-27T22:31:03.520Z,23.80
2019-01-27T22:33:33.925Z,24.50
2019-01-27T22:36:04.232Z,22.82
2019-01-27T22:38:34.613Z,23.27
2019-01-27T22:41:04.956Z,22.32
2019-01-27T22:43:35.340Z,21.90
2019-01-27T22:46:08.843Z,20.80
2019-01-27T22:48:39.280Z,23.80
2019-01-27T22:51:09.664Z,23.73
2019-01-27T22:53:39.993Z,28.50
2019-01-27T22:56:10.357Z,20.35
2019-01-27T22:58:40.762Z,25.20
2019-01-27T23:01:15.083Z,20.88
2019-01-27T23:03:48.541Z,20.48
2019-01-27T23:06:18.869Z,18.85
2019-01-27T23:08:49.227Z,23.32
2019-01-27T23:11:20.499Z,24.55
2019-01-27T23:13:52.058Z,21.70
2019-01-27T23:16:22.386Z,24.27
2019-01-27T23:18:52.735Z,28.00
2019-01-27T23:21:23.120Z,20.35
2019-01-27T23:23:53.471Z,23.02
2019-01-27T23:26:23.835Z,21.90
2019-01-27T23:28:54.248Z,22.93
2019-01-27T23:31:25.754Z,25.90
2019-01-27T23:33:56.120Z,22.48
2019-01-27T23:36:26.574Z,23.10
2019-01-27T23:38:57.003Z,25.50
2019-01-27T23:41:27.335Z,24.05
2019-01-27T23:43:57.744Z,18.32
2019-01-27T23:46:28.142Z,22.05
2019-01-27T23:48:58.546Z,28.67
2019-01-27T23:51:30.756Z,21.50
2019-01-27T23:54:01.846Z,22.58
2019-01-27T23:56:32.168Z,21.77
2019-01-27T23:59:02.509Z,19.23
